sensor_id;sensor_type;location;lat;lon;timestamp;pressure;altitude;pressure_sealevel;temperature;humidity
44297;BME280;51842;47.450;8.654;2022-07-12T14:20:58;96198.56;;;31.27;26.23
44297;BME280;51842;47.450;8.654;2022-07-12T14:23:24;96194.88;;;31.68;25.02
44297;BME280;51842;47.450;8.654;2022-07-12T14:25:50;96198.88;;;31.88;25.30
44297;BME280;51842;47.450;8.654;2022-07-12T14:28:16;96199.34;;;31.94;23.80
44297;BME280;51842;47.450;8.654;2022-07-12T14:30:47;96185.56;;;32.01;23.22
44297;BME280;51842;47.450;8.654;2022-07-12T14:33:22;96190.34;;;32.22;23.98
44297;BME280;51842;47.450;8.654;2022-07-12T14:35:57;96189.56;;;32.43;24.36
44297;BME280;51842;47.450;8.654;2022-07-12T14:38:29;96189.53;;;32.11;24.43
44297;BME280;51842;47.450;8.654;2022-07-12T14:40:55;96184.84;;;32.33;25.02
44297;BME280;51842;47.450;8.654;2022-07-12T14:43:21;96187.25;;;32.45;24.13
44297;BME280;51842;47.450;8.654;2022-07-12T14:45:47;96183.28;;;32.39;23.47
44297;BME280;51842;47.450;8.654;2022-07-12T14:48:13;96181.38;;;32.75;22.37
44297;BME280;51842;47.450;8.654;2022-07-12T14:50:42;96176.97;;;33.35;22.52
44297;BME280;51842;47.450;8.654;2022-07-12T14:53:08;96184.13;;;33.04;22.84
44297;BME280;51842;47.450;8.654;2022-07-12T14:55:34;96182.16;;;32.97;22.46
44297;BME280;51842;47.450;8.654;2022-07-12T14:58:00;96176.53;;;33.40;22.51
44297;BME280;51842;47.450;8.654;2022-07-12T15:00:28;96182.53;;;33.03;22.84
44297;BME280;51842;47.450;8.654;2022-07-12T15:02:54;96180.97;;;32.73;21.94
44297;BME280;51842;47.450;8.654;2022-07-12T15:05:26;96178.97;;;32.56;21.06
44297;BME280;51842;47.450;8.654;2022-07-12T15:07:52;96172.69;;;32.77;19.47
44297;BME280;51842;47.450;8.654;2022-07-12T15:10:18;96174.66;;;32.98;18.82
44297;BME280;51842;47.450;8.654;2022-07-12T15:12:44;96174.19;;;33.38;17.61
44297;BME280;51842;47.450;8.654;2022-07-12T15:15:13;96170.34;;;34.09;15.39
44297;BME280;51842;47.450;8.654;2022-07-12T15:17:42;96171.47;;;33.21;13.56
44297;BME280;51842;47.450;8.654;2022-07-12T15:20:08;96169.03;;;33.44;15.77
44297;BME280;51842;47.450;8.654;2022-07-12T15:22:40;96172.19;;;33.50;17.64
44297;BME280;51842;47.450;8.654;2022-07-12T15:25:07;96176.59;;;33.15;17.77
44297;BME280;51842;47.450;8.654;2022-07-12T15:27:36;96179.28;;;33.58;17.94
44297;BME280;51842;47.450;8.654;2022-07-12T15:30:09;96170.94;;;34.42;16.67
44297;BME280;51842;47.450;8.654;2022-07-12T15:32:35;96171.72;;;33.73;16.84
44297;BME280;51842;47.450;8.654;2022-07-12T15:35:05;96163.38;;;34.50;16.90
44297;BME280;51842;47.450;8.654;2022-07-12T15:37:31;96158.78;;;34.29;17.16
44297;BME280;51842;47.450;8.654;2022-07-12T15:39:57;96156.38;;;33.61;17.72
44297;BME280;51842;47.450;8.654;2022-07-12T15:42:23;96154.88;;;34.26;17.20
44297;BME280;51842;47.450;8.654;2022-07-12T15:44:52;96151.44;;;34.08;17.32
44297;BME280;51842;47.450;8.654;2022-07-12T15:47:23;96160.75;;;34.28;16.63
44297;BME280;51842;47.450;8.654;2022-07-12T15:49:51;96154.97;;;35.47;16.07
44297;BME280;51842;47.450;8.654;2022-07-12T15:52:23;96152.34;;;35.36;15.86
44297;BME280;51842;47.450;8.654;2022-07-12T15:55:08;96159.41;;;35.03;16.02
44297;BME280;51842;47.450;8.654;2022-07-12T15:57:38;96156.19;;;35.08;16.24
44297;BME280;51842;47.450;8.654;2022-07-12T16:00:11;96165.19;;;35.16;16.90
44297;BME280;51842;47.450;8.654;2022-07-12T16:02:42;96155.97;;;34.85;17.09
44297;BME280;51842;47.450;8.654;2022-07-12T16:05:12;96153.38;;;35.12;17.46
44297;BME280;51842;47.450;8.654;2022-07-12T16:07:38;96158.75;;;35.30;16.22
44297;BME280;51842;47.450;8.654;2022-07-12T16:10:09;96153.81;;;35.10;16.61
44297;BME280;51842;47.450;8.654;2022-07-12T16:12:42;96168.66;;;34.86;17.14
44297;BME280;51842;47.450;8.654;2022-07-12T16:15:11;96163.38;;;34.50;16.07
44297;BME280;51842;47.450;8.654;2022-07-12T16:17:42;96160.75;;;34.28;17.04
44297;BME280;51842;47.450;8.654;2022-07-12T16:20:09;96166.19;;;34.43;17.13
44297;BME280;51842;47.450;8.654;2022-07-12T16:22:35;96154.25;;;35.05;16.91
44297;BME280;51842;47.450;8.654;2022-07-12T16:25:01;96160.84;;;34.18;17.78
44297;BME280;51842;47.450;8.654;2022-07-12T16:27:27;96167.88;;;34.85;16.75
44297;BME280;51842;47.450;8.654;2022-07-12T16:29:54;96158.47;;;35.17;16.69
44297;BME280;51842;47.450;8.654;2022-07-12T16:32:20;96157.41;;;35.04;17.75
44297;BME280;51842;47.450;8.654;2022-07-12T16:34:53;96169.72;;;34.95;17.59
44297;BME280;51842;47.450;8.654;2022-07-12T16:37:19;96160.56;;;34.61;17.89
44297;BME280;51842;47.450;8.654;2022-07-12T16:39:45;96153.56;;;34.42;18.49
44297;BME280;51842;47.450;8.654;2022-07-12T16:42:11;96159.41;;;33.84;18.52
44297;BME280;51842;47.450;8.654;2022-07-12T16:44:37;96164.13;;;33.91;18.34
44297;BME280;51842;47.450;8.654;2022-07-12T16:47:03;96152.06;;;33.60;19.15
44297;BME280;51842;47.450;8.654;2022-07-12T16:49:29;96161.00;;;33.85;18.74
44297;BME280;51842;47.450;8.654;2022-07-12T16:52:07;96161.47;;;33.73;18.84
44297;BME280;51842;47.450;8.654;2022-07-12T16:54:35;96157.31;;;33.04;19.86
44297;BME280;51842;47.450;8.654;2022-07-12T16:57:04;96156.56;;;32.50;20.32
44297;BME280;51842;47.450;8.654;2022-07-12T16:59:29;96160.47;;;32.74;20.46
44297;BME280;51842;47.450;8.654;2022-07-12T17:01:56;96160.47;;;32.63;20.65
44297;BME280;51842;47.450;8.654;2022-07-12T17:04:22;96157.66;;;32.17;21.38
44297;BME280;51842;47.450;8.654;2022-07-12T17:06:48;96162.78;;;32.22;21.46
44297;BME280;51842;47.450;8.654;2022-07-12T17:09:23;96162.38;;;32.31;21.55
44297;BME280;51842;47.450;8.654;2022-07-12T17:11:51;96162.75;;;32.15;22.08
44297;BME280;51842;47.450;8.654;2022-07-12T17:14:26;96166.34;;;32.19;22.59
44297;BME280;51842;47.450;8.654;2022-07-12T17:16:52;96168.50;;;31.67;22.93
44297;BME280;51842;47.450;8.654;2022-07-12T17:19:18;96163.75;;;30.42;23.90
44297;BME280;51842;47.450;8.654;2022-07-12T17:21:44;96174.91;;;29.52;25.75
44297;BME280;51842;47.450;8.654;2022-07-12T17:24:13;96177.63;;;29.18;27.01
44297;BME280;51842;47.450;8.654;2022-07-12T17:26:47;96165.41;;;28.63;26.67
44297;BME280;51842;47.450;8.654;2022-07-12T17:29:19;96171.75;;;28.44;28.27
44297;BME280;51842;47.450;8.654;2022-07-12T17:31:48;96171.94;;;28.35;28.39
44297;BME280;51842;47.450;8.654;2022-07-12T17:34:20;96176.84;;;27.80;29.37
44297;BME280;51842;47.450;8.654;2022-07-12T17:36:47;96177.66;;;27.45;30.01
44297;BME280;51842;47.450;8.654;2022-07-12T17:39:14;96173.41;;;27.12;29.43
44297;BME280;51842;47.450;8.654;2022-07-12T17:41:40;96172.72;;;26.80;30.38
44297;BME280;51842;47.450;8.654;2022-07-12T17:44:08;96175.28;;;26.57;30.88
44297;BME280;51842;47.450;8.654;2022-07-12T17:46:35;96176.56;;;26.31;31.74
44297;BME280;51842;47.450;8.654;2022-07-12T17:49:02;96177.88;;;26.22;32.03
44297;BME280;51842;47.450;8.654;2022-07-12T17:51:28;96175.94;;;26.06;33.30
44297;BME280;51842;47.450;8.654;2022-07-12T17:53:55;96176.47;;;26.12;32.67
44297;BME280;51842;47.450;8.654;2022-07-12T17:56:22;96184.16;;;25.94;32.80
44297;BME280;51842;47.450;8.654;2022-07-12T17:58:57;96183.75;;;25.92;33.83
44297;BME280;51842;47.450;8.654;2022-07-12T18:01:24;96188.50;;;25.67;33.39
44297;BME280;51842;47.450;8.654;2022-07-12T18:03:51;96187.56;;;25.63;34.95
44297;BME280;51842;47.450;8.654;2022-07-12T18:06:27;96183.09;;;25.55;34.74
44297;BME280;51842;47.450;8.654;2022-07-12T18:08:53;96181.91;;;25.28;34.10
44297;BME280;51842;47.450;8.654;2022-07-12T18:11:21;96191.72;;;25.17;34.29
44297;BME280;51842;47.450;8.654;2022-07-12T18:14:11;96187.03;;;25.05;34.89
44297;BME280;51842;47.450;8.654;2022-07-12T18:16:56;96195.22;;;24.92;34.53
44297;BME280;51842;47.450;8.654;2022-07-12T18:19:40;96192.16;;;24.94;35.76
44297;BME280;51842;47.450;8.654;2022-07-12T18:22:06;96191.16;;;24.86;35.57
44297;BME280;51842;47.450;8.654;2022-07-12T18:24:32;96193.19;;;24.77;35.74
44297;BME280;51842;47.450;8.654;2022-07-12T18:26:58;96190.47;;;24.65;36.57
44297;BME280;51842;47.450;8.654;2022-07-12T18:29:23;96190.69;;;24.48;36.97
44297;BME280;51842;47.450;8.654;2022-07-12T18:31:49;96187.94;;;24.35;38.27
44297;BME280;51842;47.450;8.654;2022-07-12T18:34:15;96194.81;;;24.20;38.15
44297;BME280;51842;47.450;8.654;2022-07-12T18:36:42;96186.72;;;23.99;38.65
44297;BME280;51842;47.450;8.654;2022-07-12T18:39:07;96189.06;;;23.89;39.11
44297;BME280;51842;47.450;8.654;2022-07-12T18:41:33;96188.94;;;23.64;38.39
44297;BME280;51842;47.450;8.654;2022-07-12T18:44:00;96190.28;;;23.58;39.03
44297;BME280;51842;47.450;8.654;2022-07-12T18:46:26;96190.22;;;23.46;39.00
44297;BME280;51842;47.450;8.654;2022-07-12T18:48:51;96187.44;;;23.33;40.15
44297;BME280;51842;47.450;8.654;2022-07-12T18:51:17;96189.28;;;23.21;40.86
44297;BME280;51842;47.450;8.654;2022-07-12T18:53:46;96186.25;;;23.01;40.81
44297;BME280;51842;47.450;8.654;2022-07-12T18:56:14;96186.91;;;22.90;40.78
44297;BME280;51842;47.450;8.654;2022-07-12T18:58:40;96180.47;;;22.73;41.47
44297;BME280;51842;47.450;8.654;2022-07-12T19:01:06;96181.03;;;22.58;41.88
44297;BME280;51842;47.450;8.654;2022-07-12T19:03:31;96181.91;;;22.41;42.64
44297;BME280;51842;47.450;8.654;2022-07-12T19:05:57;96180.84;;;22.25;42.51
44297;BME280;51842;47.450;8.654;2022-07-12T19:08:26;96181.66;;;22.08;43.14
44297;BME280;51842;47.450;8.654;2022-07-12T19:10:55;96181.25;;;21.88;43.14
44297;BME280;51842;47.450;8.654;2022-07-12T19:13:22;96180.81;;;21.69;43.86
44297;BME280;51842;47.450;8.654;2022-07-12T19:15:49;96179.38;;;21.54;43.17
44297;BME280;51842;47.450;8.654;2022-07-12T19:18:16;96185.72;;;21.32;44.90
44297;BME280;51842;47.450;8.654;2022-07-12T19:20:48;96184.91;;;21.14;45.48
44297;BME280;51842;47.450;8.654;2022-07-12T19:23:14;96188.41;;;20.97;46.13
44297;BME280;51842;47.450;8.654;2022-07-12T19:25:43;96191.06;;;20.80;47.26
44297;BME280;51842;47.450;8.654;2022-07-12T19:28:12;96194.38;;;20.60;47.38
44297;BME280;51842;47.450;8.654;2022-07-12T19:30:38;96196.34;;;20.45;47.72
44297;BME280;51842;47.450;8.654;2022-07-12T19:33:05;96202.78;;;20.27;47.91
44297;BME280;51842;47.450;8.654;2022-07-12T19:35:34;96204.63;;;20.09;49.07
44297;BME280;51842;47.450;8.654;2022-07-12T19:38:01;96208.03;;;19.92;48.75
44297;BME280;51842;47.450;8.654;2022-07-12T19:40:30;96208.53;;;19.72;49.95
44297;BME280;51842;47.450;8.654;2022-07-12T19:43:23;96217.09;;;19.51;50.53
44297;BME280;51842;47.450;8.654;2022-07-12T19:45:49;96215.34;;;19.33;52.02
44297;BME280;51842;47.450;8.654;2022-07-12T19:48:19;96215.91;;;19.21;51.41
44297;BME280;51842;47.450;8.654;2022-07-12T19:50:45;96215.41;;;19.05;51.85
44297;BME280;51842;47.450;8.654;2022-07-12T19:53:17;96215.44;;;18.91;51.90
44297;BME280;51842;47.450;8.654;2022-07-12T19:55:44;96220.28;;;18.81;52.51
44297;BME280;51842;47.450;8.654;2022-07-12T19:58:13;96217.25;;;18.68;52.05
44297;BME280;51842;47.450;8.654;2022-07-12T20:00:39;96218.06;;;18.55;52.72
44297;BME280;51842;47.450;8.654;2022-07-12T20:03:05;96216.72;;;18.39;54.03
44297;BME280;51842;47.450;8.654;2022-07-12T20:05:35;96222.91;;;18.25;53.84
44297;BME280;51842;47.450;8.654;2022-07-12T20:08:04;96224.28;;;18.09;54.48
44297;BME280;51842;47.450;8.654;2022-07-12T20:10:33;96225.34;;;17.94;53.97
44297;BME280;51842;47.450;8.654;2022-07-12T20:12:59;96227.31;;;17.89;53.26
44297;BME280;51842;47.450;8.654;2022-07-12T20:15:25;96229.22;;;17.88;53.75
44297;BME280;51842;47.450;8.654;2022-07-12T20:18:11;96225.81;;;17.83;53.87
44297;BME280;51842;47.450;8.654;2022-07-12T20:20:42;96228.38;;;17.74;54.35
44297;BME280;51842;47.450;8.654;2022-07-12T20:23:21;96229.97;;;17.56;54.29
44297;BME280;51842;47.450;8.654;2022-07-12T20:25:47;96226.03;;;17.48;54.39
44297;BME280;51842;47.450;8.654;2022-07-12T20:28:13;96229.09;;;17.42;55.00
44297;BME280;51842;47.450;8.654;2022-07-12T20:30:39;96231.69;;;17.33;55.12
44297;BME280;51842;47.450;8.654;2022-07-12T20:33:05;96236.41;;;17.22;55.21
44297;BME280;51842;47.450;8.654;2022-07-12T20:35:52;96234.44;;;17.09;55.97
44297;BME280;51842;47.450;8.654;2022-07-12T20:38:18;96230.34;;;16.93;56.67
44297;BME280;51842;47.450;8.654;2022-07-12T20:40:52;96235.63;;;16.79;57.21
44297;BME280;51842;47.450;8.654;2022-07-12T20:43:53;96230.13;;;16.65;58.02
44297;BME280;51842;47.450;8.654;2022-07-12T20:46:19;96233.44;;;16.57;57.97
44297;BME280;51842;47.450;8.654;2022-07-12T20:48:45;96232.75;;;16.46;58.51
44297;BME280;51842;47.450;8.654;2022-07-12T20:51:13;96236.84;;;16.38;58.13
44297;BME280;51842;47.450;8.654;2022-07-12T20:53:39;96234.72;;;16.35;58.20
44297;BME280;51842;47.450;8.654;2022-07-12T20:56:06;96238.56;;;16.29;58.90
44297;BME280;51842;47.450;8.654;2022-07-12T20:58:35;96239.75;;;16.18;59.48
44297;BME280;51842;47.450;8.654;2022-07-12T21:01:02;96237.91;;;16.13;59.85
44297;BME280;51842;47.450;8.654;2022-07-12T21:03:34;96241.47;;;16.09;59.64
44297;BME280;51842;47.450;8.654;2022-07-12T21:06:00;96234.25;;;16.04;59.53
44297;BME280;51842;47.450;8.654;2022-07-12T21:08:29;96233.44;;;16.04;59.14
44297;BME280;51842;47.450;8.654;2022-07-12T21:10:58;96233.19;;;16.05;59.11
44297;BME280;51842;47.450;8.654;2022-07-12T21:13:24;96233.44;;;16.04;58.94
44297;BME280;51842;47.450;8.654;2022-07-12T21:15:50;96236.69;;;16.01;59.09
44297;BME280;51842;47.450;8.654;2022-07-12T21:18:16;96230.56;;;15.95;59.49
44297;BME280;51842;47.450;8.654;2022-07-12T21:20:43;96228.19;;;15.88;59.56
44297;BME280;51842;47.450;8.654;2022-07-12T21:23:09;96227.41;;;15.88;59.52
44297;BME280;51842;47.450;8.654;2022-07-12T21:25:35;96219.91;;;15.85;59.93
44297;BME280;51842;47.450;8.654;2022-07-12T21:28:03;96220.47;;;15.82;59.75
44297;BME280;51842;47.450;8.654;2022-07-12T21:30:35;96221.28;;;15.82;60.06
44297;BME280;51842;47.450;8.654;2022-07-12T21:33:05;96220.69;;;15.90;59.85
44297;BME280;51842;47.450;8.654;2022-07-12T21:35:37;96223.00;;;16.02;59.59
44297;BME280;51842;47.450;8.654;2022-07-12T21:38:03;96222.78;;;16.23;57.60
44297;BME280;51842;47.450;8.654;2022-07-12T21:40:29;96226.00;;;16.49;58.10
44297;BME280;51842;47.450;8.654;2022-07-12T21:42:55;96221.16;;;16.70;55.70
44297;BME280;51842;47.450;8.654;2022-07-12T21:45:21;96220.47;;;17.07;53.60
44297;BME280;51842;47.450;8.654;2022-07-12T21:47:53;96217.16;;;17.48;54.28
44297;BME280;51842;47.450;8.654;2022-07-12T21:50:31;96213.66;;;17.66;52.06
44297;BME280;51842;47.450;8.654;2022-07-12T21:53:09;96215.63;;;17.61;53.39
44297;BME280;51842;47.450;8.654;2022-07-12T21:55:38;96220.91;;;17.52;53.95
44297;BME280;51842;47.450;8.654;2022-07-12T21:58:06;96218.06;;;17.43;54.45
44297;BME280;51842;47.450;8.654;2022-07-12T22:00:32;96231.97;;;17.31;54.62
44297;BME280;51842;47.450;8.654;2022-07-12T22:02:58;96219.81;;;17.15;55.13
44297;BME280;51842;47.450;8.654;2022-07-12T22:05:24;96227.56;;;16.98;55.74
44297;BME280;51842;47.450;8.654;2022-07-12T22:07:52;96220.31;;;16.74;57.13
44297;BME280;51842;47.450;8.654;2022-07-12T22:10:21;96219.97;;;16.57;57.93
44297;BME280;51842;47.450;8.654;2022-07-12T22:12:53;96224.25;;;16.39;57.87
44297;BME280;51842;47.450;8.654;2022-07-12T22:15:19;96219.44;;;16.36;58.54
